createdAt,value
2018-10-05T00:00:31.441Z,8.57
2018-10-05T00:03:00.237Z,13.40
2018-10-05T00:05:28.762Z,8.80
2018-10-05T00:07:57.397Z,10.77
2018-10-05T00:10:26.035Z,7.77
2018-10-05T00:12:54.794Z,10.10
2018-10-05T00:15:23.347Z,11.53
2018-10-05T00:17:51.846Z,10.10
2018-10-05T00:20:20.624Z,12.53
2018-10-05T00:22:49.094Z,8.13
2018-10-05T00:25:17.810Z,9.10
2018-10-05T00:27:46.301Z,10.40
2018-10-05T00:30:14.892Z,15.73
2018-10-05T00:32:43.462Z,9.23
2018-10-05T00:35:12.013Z,7.20
2018-10-05T00:37:40.644Z,11.37
2018-10-05T00:40:09.246Z,8.73
2018-10-05T00:42:38.066Z,8.27
2018-10-05T00:45:06.617Z,5.60
2018-10-05T00:47:35.386Z,16.10
2018-10-05T00:50:04.126Z,13.43
2018-10-05T00:52:32.654Z,10.50
2018-10-05T00:55:01.358Z,14.83
2018-10-05T00:57:29.934Z,16.33
2018-10-05T00:59:58.614Z,9.80
2018-10-05T01:02:27.199Z,19.27
2018-10-05T01:04:55.990Z,15.97
2018-10-05T01:07:24.672Z,16.27
2018-10-05T01:09:53.308Z,6.97
2018-10-05T01:12:21.878Z,12.57
2018-10-05T01:14:50.475Z,13.57
2018-10-05T01:17:19.230Z,10.00
2018-10-05T01:19:47.833Z,8.87
2018-10-05T01:22:16.555Z,18.43
2018-10-05T01:24:45.323Z,11.67
2018-10-05T01:27:14.037Z,12.23
2018-10-05T01:29:42.618Z,13.97
2018-10-05T01:32:11.152Z,10.17
2018-10-05T01:34:39.812Z,16.07
2018-10-05T01:37:08.319Z,11.20
2018-10-05T01:39:37.327Z,12.77
2018-10-05T01:42:05.811Z,16.00
2018-10-05T01:44:34.497Z,17.53
2018-10-05T01:47:03.812Z,10.67
2018-10-05T01:49:32.501Z,13.87
2018-10-05T01:52:01.003Z,12.33
2018-10-05T01:54:29.645Z,14.37
2018-10-05T01:56:58.214Z,8.00
2018-10-05T01:59:26.737Z,16.43
2018-10-05T02:01:55.450Z,6.10
2018-10-05T02:04:23.943Z,11.73
2018-10-05T02:06:52.854Z,10.27
2018-10-05T02:09:21.386Z,18.03
2018-10-05T02:11:50.177Z,9.57
2018-10-05T02:14:18.753Z,13.53
2018-10-05T02:16:47.390Z,13.73
2018-10-05T02:19:15.938Z,10.43
2018-10-05T02:21:44.434Z,7.60
2018-10-05T02:24:13.386Z,12.30
2018-10-05T02:26:41.915Z,10.00
2018-10-05T02:29:10.570Z,10.27
2018-10-05T02:31:39.118Z,10.73
2018-10-05T02:34:07.754Z,12.00
2018-10-05T02:36:36.235Z,13.03
2018-10-05T02:39:07.467Z,9.83
2018-10-05T02:41:35.984Z,11.90
2018-10-05T02:44:04.515Z,11.10
2018-10-05T02:46:33.122Z,9.27
2018-10-05T02:49:01.668Z,12.50
2018-10-05T02:51:30.400Z,8.50
2018-10-05T02:53:58.909Z,6.83
2018-10-05T02:56:27.580Z,8.93
2018-10-05T02:58:56.138Z,11.07
2018-10-05T03:01:35.751Z,9.10
2018-10-05T03:04:04.599Z,6.53
2018-10-05T03:06:33.108Z,10.20
2018-10-05T03:09:01.758Z,8.30
2018-10-05T03:11:30.310Z,6.33
2018-10-05T03:13:59.051Z,10.87
2018-10-05T03:16:27.662Z,6.40
2018-10-05T03:18:56.212Z,8.60
2018-10-05T03:21:24.818Z,12.10
2018-10-05T03:23:53.416Z,11.90
2018-10-05T03:26:22.108Z,13.47
2018-10-05T03:28:50.618Z,7.27
2018-10-05T03:31:19.292Z,8.77
2018-10-05T03:33:48.065Z,9.63
2018-10-05T03:36:16.812Z,13.87
2018-10-05T03:38:45.529Z,9.63
2018-10-05T03:41:14.274Z,12.00
2018-10-05T03:43:42.923Z,12.70
2018-10-05T03:46:11.567Z,8.30
2018-10-05T03:48:40.075Z,6.20
2018-10-05T03:51:08.596Z,7.93
2018-10-05T03:53:37.394Z,6.33
2018-10-05T03:56:06.787Z,4.33
2018-10-05T03:58:35.550Z,4.03
2018-10-05T04:01:04.841Z,4.77
2018-10-05T04:03:33.778Z,11.07
2018-10-05T04:06:02.311Z,5.47
2018-10-05T04:08:31.338Z,5.47
2018-10-05T04:10:59.952Z,7.27
2018-10-05T04:13:28.776Z,5.50
2018-10-05T04:15:58.443Z,2.33
2018-10-05T04:18:27.403Z,8.13
2018-10-05T04:20:55.986Z,4.37
2018-10-05T04:23:24.657Z,4.07
2018-10-05T04:25:53.471Z,10.37
2018-10-05T04:28:22.104Z,5.33
2018-10-05T04:30:50.726Z,7.83
2018-10-05T04:33:19.238Z,5.10
2018-10-05T04:35:48.240Z,6.93
2018-10-05T04:38:16.746Z,7.20
2018-10-05T04:40:45.659Z,6.13
2018-10-05T04:43:14.286Z,11.80
2018-10-05T04:45:43.150Z,7.70
2018-10-05T04:48:12.051Z,5.23
2018-10-05T04:50:40.730Z,5.80
2018-10-05T04:53:09.346Z,9.03
2018-10-05T04:55:37.890Z,6.90
2018-10-05T04:58:06.738Z,5.70
2018-10-05T05:00:35.435Z,8.17
2018-10-05T05:03:03.922Z,6.80
2018-10-05T05:05:33.802Z,6.03
2018-10-05T05:08:02.448Z,7.10
2018-10-05T05:10:31.084Z,9.97
2018-10-05T05:12:59.614Z,7.47
2018-10-05T05:15:28.198Z,8.37
2018-10-05T05:17:56.714Z,6.97
2018-10-05T05:20:25.461Z,6.60
2018-10-05T05:22:54.078Z,7.03
2018-10-05T05:25:22.862Z,10.30
2018-10-05T05:27:51.475Z,12.50
2018-10-05T05:30:20.121Z,10.07
2018-10-05T05:32:48.668Z,11.60
2018-10-05T05:35:17.190Z,11.23
2018-10-05T05:37:46.068Z,9.23
2018-10-05T05:40:14.655Z,9.67
2018-10-05T05:42:43.480Z,10.33
2018-10-05T05:45:12.042Z,12.10
2018-10-05T05:47:40.844Z,7.50
2018-10-05T05:50:09.394Z,11.83
2018-10-05T05:52:38.183Z,6.93
2018-10-05T05:55:06.799Z,8.63
2018-10-05T05:57:35.353Z,11.77
2018-10-05T06:00:04.306Z,8.73
2018-10-05T06:02:33.015Z,6.87
2018-10-05T06:05:01.731Z,9.67
2018-10-05T06:07:30.287Z,11.97
2018-10-05T06:09:59.246Z,12.43
2018-10-05T06:12:27.807Z,8.57
2018-10-05T06:14:56.458Z,6.27
2018-10-05T06:17:25.001Z,17.50
2018-10-05T06:19:53.506Z,6.60
2018-10-05T06:22:22.447Z,11.57
2018-10-05T06:24:50.798Z,8.27
2018-10-05T06:27:19.496Z,8.97
2018-10-05T06:29:48.206Z,15.00
2018-10-05T06:32:16.840Z,10.63
2018-10-05T06:34:45.388Z,4.80
2018-10-05T06:37:14.046Z,8.47
2018-10-05T06:39:42.730Z,6.20
2018-10-05T06:42:11.274Z,7.70
2018-10-05T06:44:40.060Z,6.97
2018-10-05T06:47:08.691Z,12.93
2018-10-05T06:49:37.535Z,4.40
2018-10-05T06:52:07.289Z,8.67
2018-10-05T06:54:36.437Z,12.67
2018-10-05T06:57:04.999Z,8.43
2018-10-05T06:59:34.701Z,7.77
2018-10-05T07:02:03.243Z,9.83
2018-10-05T07:04:31.868Z,11.23
2018-10-05T07:07:00.436Z,9.33
2018-10-05T07:09:29.043Z,8.00
2018-10-05T07:11:57.732Z,9.07
2018-10-05T07:14:26.375Z,9.20
2018-10-05T07:16:55.228Z,8.90
2018-10-05T07:19:23.791Z,8.17
2018-10-05T07:21:52.514Z,11.27
2018-10-05T07:24:21.156Z,7.87
2018-10-05T07:26:49.767Z,7.73
2018-10-05T07:29:18.370Z,7.93
2018-10-05T07:31:46.982Z,14.43
2018-10-05T07:34:15.852Z,5.03
2018-10-05T07:36:44.409Z,6.80
2018-10-05T07:39:13.140Z,7.97
2018-10-05T07:41:41.663Z,5.93
2018-10-05T07:44:10.301Z,10.60
2018-10-05T07:46:38.935Z,3.17
2018-10-05T07:49:07.441Z,2.03
2018-10-05T07:51:36.321Z,5.70
2018-10-05T07:54:04.827Z,5.27
2018-10-05T07:56:34.070Z,2.63
2018-10-05T07:59:02.808Z,2.67
2018-10-05T08:01:31.527Z,5.07
2018-10-05T08:04:00.106Z,8.80
2018-10-05T08:06:28.886Z,4.20
2018-10-05T08:08:57.427Z,10.13
2018-10-05T08:11:25.930Z,8.30
2018-10-05T08:13:54.917Z,7.83
2018-10-05T08:16:23.430Z,6.07
2018-10-05T08:18:55.169Z,10.60
2018-10-05T08:21:23.762Z,4.43
2018-10-05T08:23:52.690Z,6.57
2018-10-05T08:26:21.666Z,3.43
2018-10-05T08:28:50.591Z,10.10
2018-10-05T08:31:19.347Z,7.63
2018-10-05T08:33:48.051Z,5.43
2018-10-05T08:36:16.521Z,8.17
2018-10-05T08:38:45.029Z,9.23
2018-10-05T08:41:17.875Z,6.50
2018-10-05T08:43:46.658Z,3.83
2018-10-05T08:46:15.675Z,8.33
2018-10-05T08:48:45.815Z,7.37
2018-10-05T08:51:14.378Z,5.07
2018-10-05T08:53:42.992Z,4.03
2018-10-05T08:56:11.959Z,4.10
2018-10-05T08:58:40.470Z,7.03
2018-10-05T09:01:09.162Z,7.23
2018-10-05T09:03:37.946Z,5.93
2018-10-05T09:06:06.936Z,10.73
2018-10-05T09:08:35.623Z,11.53
2018-10-05T09:11:04.415Z,4.80
2018-10-05T09:13:33.042Z,4.00
2018-10-05T09:16:01.636Z,10.03
2018-10-05T09:18:30.349Z,9.13
2018-10-05T09:20:58.859Z,3.93
2018-10-05T09:23:27.749Z,4.67
2018-10-05T09:25:56.391Z,3.53
2018-10-05T09:28:25.288Z,8.60
2018-10-05T09:30:53.826Z,8.97
2018-10-05T09:33:22.434Z,9.13
2018-10-05T09:35:50.990Z,5.70
2018-10-05T09:38:19.494Z,6.60
2018-10-05T09:40:48.295Z,8.43
2018-10-05T09:43:16.946Z,3.40
2018-10-05T09:45:45.654Z,6.23
2018-10-05T09:48:14.279Z,6.07
2018-10-05T09:50:43.054Z,9.33
2018-10-05T09:53:11.547Z,6.20
2018-10-05T09:55:40.954Z,6.57
2018-10-05T09:58:10.206Z,6.00
2018-10-05T10:00:44.314Z,6.10
2018-10-05T10:03:18.313Z,3.03
2018-10-05T10:05:47.366Z,6.93
2018-10-05T10:08:16.251Z,6.00
2018-10-05T10:10:45.021Z,5.20
2018-10-05T10:13:19.632Z,3.93
2018-10-05T10:15:52.184Z,5.97
2018-10-05T10:18:20.936Z,4.93
2018-10-05T10:20:50.130Z,6.07
2018-10-05T10:23:19.714Z,4.60
2018-10-05T10:25:48.890Z,6.90
2018-10-05T10:28:17.722Z,4.67
2018-10-05T10:30:46.969Z,5.90
2018-10-05T10:33:15.602Z,8.77
2018-10-05T10:35:44.585Z,6.33
2018-10-05T10:38:13.566Z,9.47
2018-10-05T10:40:43.056Z,7.83
2018-10-05T10:43:12.064Z,7.00
2018-10-05T10:45:42.359Z,3.47
2018-10-05T10:48:11.075Z,10.27
2018-10-05T10:50:40.010Z,6.23
2018-10-05T10:53:08.605Z,4.33
2018-10-05T10:55:37.298Z,9.53
2018-10-05T10:58:06.015Z,5.40
2018-10-05T11:00:34.621Z,6.57
2018-10-05T11:03:03.661Z,5.70
2018-10-05T11:05:32.220Z,3.87
2018-10-05T11:08:01.078Z,6.47
2018-10-05T11:10:29.691Z,6.70
2018-10-05T11:12:58.452Z,9.40
2018-10-05T11:15:27.002Z,3.37
2018-10-05T11:17:55.904Z,4.07
2018-10-05T11:20:24.456Z,7.43
2018-10-05T11:22:52.954Z,6.83
2018-10-05T11:25:21.695Z,3.80
2018-10-05T11:27:50.305Z,6.10
2018-10-05T11:30:19.108Z,4.60
2018-10-05T11:32:47.732Z,7.20
2018-10-05T11:35:17.430Z,5.73
2018-10-05T11:37:46.003Z,5.17
2018-10-05T11:40:14.926Z,2.10
2018-10-05T11:42:43.435Z,3.90
2018-10-05T11:45:12.051Z,3.80
2018-10-05T11:47:40.631Z,3.90
2018-10-05T11:50:09.174Z,10.50
2018-10-05T11:52:37.958Z,4.93
2018-10-05T11:55:06.594Z,2.27
2018-10-05T11:57:35.418Z,9.03
2018-10-05T12:00:04.098Z,5.40
2018-10-05T12:02:32.743Z,5.77
2018-10-05T12:05:01.380Z,5.43
2018-10-05T12:07:30.022Z,6.27
2018-10-05T12:09:58.717Z,2.57
2018-10-05T12:12:27.264Z,6.40
2018-10-05T12:14:56.003Z,5.10
2018-10-05T12:17:24.600Z,7.17
2018-10-05T12:19:53.375Z,4.47
2018-10-05T12:22:22.065Z,2.43
2018-10-05T12:24:50.669Z,4.97
2018-10-05T12:27:19.524Z,5.27
2018-10-05T12:29:48.638Z,6.73
2018-10-05T12:32:17.406Z,4.30
2018-10-05T12:34:45.917Z,3.57
2018-10-05T12:37:16.163Z,6.23
2018-10-05T12:39:44.690Z,4.90
2018-10-05T12:42:13.618Z,7.87
2018-10-05T12:44:42.150Z,5.43
2018-10-05T12:47:10.930Z,3.70
2018-10-05T12:49:39.492Z,12.50
2018-10-05T12:52:08.154Z,5.67
2018-10-05T12:54:36.830Z,6.23
2018-10-05T12:57:05.416Z,7.17
2018-10-05T12:59:34.407Z,5.87
2018-10-05T13:02:03.970Z,6.13
2018-10-05T13:04:32.875Z,8.73
2018-10-05T13:07:01.529Z,6.47
2018-10-05T13:09:30.490Z,9.67
2018-10-05T13:11:58.987Z,7.50
2018-10-05T13:14:27.634Z,6.60
2018-10-05T13:16:56.206Z,3.67
2018-10-05T13:19:24.713Z,5.43
2018-10-05T13:21:53.429Z,5.00
2018-10-05T13:24:22.051Z,2.17
2018-10-05T13:26:50.942Z,10.23
2018-10-05T13:29:19.470Z,2.47
2018-10-05T13:31:48.528Z,3.27
2018-10-05T13:34:17.102Z,6.80
2018-10-05T13:36:45.938Z,8.60
2018-10-05T13:39:14.464Z,5.87
2018-10-05T13:41:43.072Z,2.67
2018-10-05T13:44:11.648Z,4.80
2018-10-05T13:46:40.213Z,6.83
2018-10-05T13:49:09.130Z,4.00
2018-10-05T13:51:38.102Z,5.00
2018-10-05T13:54:07.231Z,6.53
2018-10-05T13:56:36.046Z,4.27
2018-10-05T13:59:05.484Z,4.33
2018-10-05T14:01:34.008Z,10.40
2018-10-05T14:04:02.723Z,5.33
2018-10-05T14:06:31.251Z,8.40
2018-10-05T14:09:01.205Z,2.17
2018-10-05T14:11:29.765Z,5.23
2018-10-05T14:13:58.248Z,6.80
2018-10-05T14:16:26.935Z,3.27
2018-10-05T14:18:55.481Z,3.67
2018-10-05T14:21:24.460Z,3.83
2018-10-05T14:23:52.982Z,2.87
2018-10-05T14:26:21.789Z,2.37
2018-10-05T14:28:50.374Z,5.23
2018-10-05T14:31:19.468Z,7.73
2018-10-05T14:33:48.176Z,5.93
2018-10-05T14:36:16.716Z,9.37
2018-10-05T14:38:45.377Z,2.47
2018-10-05T14:41:13.881Z,4.53
2018-10-05T14:43:42.856Z,2.43
2018-10-05T14:46:11.358Z,5.40
2018-10-05T14:48:40.329Z,5.33
2018-10-05T14:51:08.846Z,2.73
2018-10-05T14:53:37.501Z,1.60
2018-10-05T14:56:06.934Z,6.93
2018-10-05T14:58:35.520Z,4.60
2018-10-05T15:01:04.119Z,3.37
2018-10-05T15:03:32.671Z,8.07
2018-10-05T15:06:01.646Z,8.30
2018-10-05T15:08:30.898Z,4.23
2018-10-05T15:10:59.626Z,4.73
2018-10-05T15:13:28.175Z,2.60
2018-10-05T15:15:56.813Z,2.67
2018-10-05T15:18:25.318Z,5.83
2018-10-05T15:20:53.883Z,6.87
2018-10-05T15:23:22.927Z,6.63
2018-10-05T15:25:51.454Z,9.23
2018-10-05T15:28:20.326Z,7.63
2018-10-05T15:30:48.858Z,5.90
2018-10-05T15:33:17.766Z,12.70
2018-10-05T15:35:46.479Z,3.07
2018-10-05T15:38:15.172Z,6.10
2018-10-05T15:43:23.785Z,2.77
2018-10-05T15:45:55.598Z,5.63
2018-10-05T15:48:25.030Z,7.80
2018-10-05T15:50:53.836Z,4.20
2018-10-05T15:53:22.478Z,4.80
2018-10-05T15:55:51.935Z,3.17
2018-10-05T15:58:20.681Z,3.70
2018-10-05T16:00:49.386Z,5.13
2018-10-05T16:03:18.065Z,7.50
2018-10-05T16:05:46.928Z,4.23
2018-10-05T16:08:16.073Z,3.53
2018-10-05T16:10:45.751Z,6.53
2018-10-05T16:13:14.887Z,7.10
2018-10-05T16:15:44.531Z,10.40
2018-10-05T16:18:14.109Z,2.23
2018-10-05T16:20:42.796Z,3.97
2018-10-05T16:23:11.297Z,1.47
2018-10-05T16:25:40.182Z,2.73
2018-10-05T16:28:10.279Z,3.07
2018-10-05T16:30:39.217Z,1.10
2018-10-05T16:33:07.751Z,2.80
2018-10-05T16:35:36.292Z,4.20
2018-10-05T16:38:04.810Z,3.00
2018-10-05T16:40:33.302Z,3.63
2018-10-05T16:43:02.131Z,2.53
2018-10-05T16:45:30.646Z,1.70
2018-10-05T16:47:59.429Z,2.63
2018-10-05T16:50:27.994Z,0.50
2018-10-05T16:52:56.634Z,0.50
2018-10-05T16:55:25.196Z,3.60
2018-10-05T16:57:53.702Z,2.43
2018-10-05T17:00:22.494Z,1.53
2018-10-05T17:02:51.058Z,6.90
2018-10-05T17:05:19.863Z,2.87
2018-10-05T17:07:48.362Z,6.63
2018-10-05T17:10:17.045Z,3.90
2018-10-05T17:12:46.560Z,3.23
2018-10-05T17:15:15.148Z,5.17
2018-10-05T17:17:43.902Z,2.00
2018-10-05T17:20:12.441Z,2.00
2018-10-05T17:22:41.746Z,3.13
2018-10-05T17:25:10.303Z,3.67
2018-10-05T17:27:39.947Z,3.90
2018-10-05T17:30:08.723Z,1.57
2018-10-05T17:32:38.746Z,3.90
2018-10-05T17:35:07.359Z,3.30
2018-10-05T17:37:36.226Z,3.57
2018-10-05T17:40:05.836Z,5.27
2018-10-05T17:42:34.547Z,3.93
2018-10-05T17:45:03.181Z,4.93
2018-10-05T17:47:31.837Z,5.33
2018-10-05T17:50:00.544Z,9.23
2018-10-05T17:52:29.127Z,2.23
2018-10-05T17:54:58.528Z,3.07
2018-10-05T17:57:27.188Z,4.77
2018-10-05T17:59:56.216Z,2.77
2018-10-05T18:02:24.776Z,7.53
2018-10-05T18:04:54.744Z,4.57
2018-10-05T18:07:23.458Z,2.53
2018-10-05T18:09:52.737Z,1.33
2018-10-05T18:12:22.415Z,3.73
2018-10-05T18:14:51.663Z,3.03
2018-10-05T18:17:20.290Z,4.77
2018-10-05T18:19:48.914Z,2.43
2018-10-05T18:22:18.447Z,6.10
2018-10-05T18:24:47.013Z,2.37
2018-10-05T18:27:15.902Z,2.37
2018-10-05T18:29:44.438Z,0.60
2018-10-05T18:32:14.587Z,1.03
2018-10-05T18:34:43.096Z,2.37
2018-10-05T18:37:12.030Z,0.70
2018-10-05T18:39:40.602Z,2.93
2018-10-05T18:42:09.387Z,1.20
2018-10-05T18:44:37.967Z,2.00
2018-10-05T18:47:07.484Z,0.60
2018-10-05T18:49:36.565Z,1.23
2018-10-05T18:52:05.212Z,1.50
2018-10-05T18:54:33.756Z,1.67
2018-10-05T18:57:13.498Z,0.70
2018-10-05T18:59:43.585Z,1.20
2018-10-05T19:02:12.895Z,1.50
2018-10-05T19:04:42.001Z,3.63
2018-10-05T19:07:10.646Z,1.37
2018-10-05T19:09:39.723Z,1.73
2018-10-05T19:12:08.310Z,2.97
2018-10-05T19:14:38.754Z,1.30
2018-10-05T19:17:07.313Z,1.57
2018-10-05T19:19:36.086Z,1.17
2018-10-05T19:22:04.614Z,0.80
2018-10-05T19:24:33.202Z,4.57
2018-10-05T19:27:02.543Z,1.47
2018-10-05T19:29:31.090Z,1.57
2018-10-05T19:32:00.909Z,1.00
2018-10-05T19:34:29.419Z,4.67
2018-10-05T19:36:58.903Z,3.57
2018-10-05T19:39:27.435Z,0.73
2018-10-05T19:41:57.755Z,2.50
2018-10-05T19:44:26.382Z,1.17
2018-10-05T19:46:55.766Z,2.27
2018-10-05T19:49:24.672Z,1.03
2018-10-05T19:51:54.566Z,1.63
2018-10-05T19:54:23.146Z,5.13
2018-10-05T19:56:53.888Z,0.93
2018-10-05T19:59:22.462Z,1.57
2018-10-05T20:01:51.632Z,0.30
2018-10-05T20:04:20.274Z,3.57
2018-10-05T20:06:48.962Z,2.37
2018-10-05T20:09:17.553Z,1.47
2018-10-05T20:11:46.186Z,0.37
2018-10-05T20:14:15.872Z,0.83
2018-10-05T20:16:44.394Z,0.60
2018-10-05T20:19:14.356Z,2.00
2018-10-05T20:21:42.866Z,0.50
2018-10-05T20:24:12.325Z,1.57
2018-10-05T20:26:40.806Z,0.80
2018-10-05T20:29:10.162Z,3.53
2018-10-05T20:31:38.674Z,0.40
2018-10-05T20:34:07.322Z,2.37
2018-10-05T20:36:36.102Z,0.70
2018-10-05T20:39:06.314Z,0.60
2018-10-05T20:41:34.946Z,0.83
2018-10-05T20:44:04.241Z,0.73
2018-10-05T20:46:33.912Z,0.90
2018-10-05T20:49:02.984Z,1.40
2018-10-05T20:51:32.537Z,5.10
2018-10-05T20:54:01.201Z,1.03
2018-10-05T20:56:34.787Z,0.77
2018-10-05T20:59:04.590Z,1.50
2018-10-05T21:01:33.208Z,3.60
2018-10-05T21:04:03.514Z,3.77
2018-10-05T21:06:32.101Z,6.37
2018-10-05T21:09:00.966Z,5.27
2018-10-05T21:11:29.535Z,3.60
2018-10-05T21:13:58.258Z,0.60
2018-10-05T21:16:26.795Z,0.77
2018-10-05T21:18:55.394Z,0.83
2018-10-05T21:21:23.911Z,0.40
2018-10-05T21:23:52.414Z,1.67
2018-10-05T21:26:21.098Z,0.97
2018-10-05T21:28:49.594Z,1.70
2018-10-05T21:31:18.663Z,2.27
2018-10-05T21:33:47.190Z,0.73
2018-10-05T21:36:16.708Z,2.60
2018-10-05T21:38:45.288Z,1.47
2018-10-05T21:41:14.141Z,8.30
2018-10-05T21:43:42.775Z,7.00
2018-10-05T21:46:11.292Z,4.07
2018-10-05T21:48:39.913Z,6.23
2018-10-05T21:51:08.449Z,6.33
2018-10-05T21:53:37.395Z,2.83
2018-10-05T21:56:05.922Z,4.20
2018-10-05T21:58:34.620Z,4.07
2018-10-05T22:01:03.322Z,2.17
2018-10-05T22:03:32.173Z,4.40
2018-10-05T22:06:00.814Z,1.73
2018-10-05T22:08:29.396Z,0.50
2018-10-05T22:10:58.294Z,0.70
2018-10-05T22:13:26.871Z,9.43
2018-10-05T22:15:55.661Z,4.20
2018-10-05T22:18:24.247Z,2.30
2018-10-05T22:20:52.850Z,3.13
2018-10-05T22:23:22.362Z,0.93
2018-10-05T22:25:51.025Z,3.97
2018-10-05T22:28:19.618Z,2.80
2018-10-05T22:30:48.167Z,2.00
2018-10-05T22:33:17.436Z,1.33
2018-10-05T22:35:45.931Z,0.60
2018-10-05T22:38:14.523Z,4.10
2018-10-05T22:40:43.226Z,1.83
2018-10-05T22:43:11.830Z,2.20
2018-10-05T22:45:40.337Z,3.40
2018-10-05T22:48:09.030Z,0.80
2018-10-05T22:50:37.805Z,7.10
2018-10-05T22:53:06.339Z,5.83
2018-10-05T22:55:35.231Z,2.63
2018-10-05T22:58:03.762Z,1.83
2018-10-05T23:00:32.390Z,2.03
2018-10-05T23:03:00.910Z,3.03
2018-10-05T23:05:29.417Z,0.67
2018-10-05T23:07:57.978Z,4.43
2018-10-05T23:10:26.648Z,4.43
2018-10-05T23:12:56.378Z,1.83
2018-10-05T23:15:24.992Z,3.57
2018-10-05T23:17:53.858Z,6.53
2018-10-05T23:20:22.338Z,7.47
2018-10-05T23:22:51.292Z,5.73
2018-10-05T23:25:19.884Z,6.03
2018-10-05T23:27:48.378Z,3.50
2018-10-05T23:30:17.133Z,0.70
2018-10-05T23:32:45.668Z,1.20
2018-10-05T23:35:14.446Z,6.37
2018-10-05T23:37:42.926Z,0.97
2018-10-05T23:40:11.608Z,0.90
2018-10-05T23:42:40.706Z,0.63
2018-10-05T23:45:09.293Z,2.70
2018-10-05T23:47:38.035Z,2.67
2018-10-05T23:50:06.642Z,2.07
2018-10-05T23:52:38.598Z,1.97
2018-10-05T23:55:07.323Z,1.50
2018-10-05T23:57:36.502Z,3.87
